Adams Mills, OH

4:05 PM EDT on September 02, 2015 (GMT -0400)
FranklinTownship TR 479 | | Change Station
CLOSE
Current Station
Personal Weather Station
Location: Coshocton, OH
Elevation: 866 ft
Nearby Weather Stations

Elev 866 ft 40.21 °N, 81.89 °W | Updated 16 seconds ago

Clear
Clear
87.8 °F
Feels Like 93 °F
N
4.0
Wind Variable Wind from WNW
Gusts 7.4 mph

Today
High -- | Low -- °F
--% Chance of Precip.
Yesterday
High -- | Low -- °F
Precip. -- in
6:56 AM 7:58 PM
Waning Gibbous, 77% visible
Pressure 30.01 in
Visibility 10.0 miles
Clouds Clear
Heat Index 93 °F
Dew Point 70 °F
Humidity 55%
Rainfall 0.00 in
Snow Depth Not available.
UV 3.0 out of 12
Pollen 10.40 out of 12
Air Quality Not available.
Flu Activity Not available.
METAR KZZV 021953Z AUTO 32010KT 10SM CLR 32/17 A3003 RMK AO2 SLP160 T03220167 TSNO
Pressure 30.01 in
Visibility 10.0 miles
Clouds Clear
Heat Index 93 °F
Dew Point 70 °F
Humidity 55%
Rainfall 0.00 in
Snow Depth Not available.
UV 3.0 out of 12
Pollen 10.40 out of 12
Air Quality Not available.
Flu Activity Not available.
METAR KZZV 021953Z AUTO 32010KT 10SM CLR 32/17 A3003 RMK AO2 SLP160 T03220167 TSNO

10-Day Weather Forecast

×

Almanac

Astronomy

Sep. 02, 2015 Rise Set
Actual Time
Civil Twilight
Nautical Twilight
Astronomical Twilight
Moon
Length of Visible Light
Length of Day
Tomorrow will be .
, % of the Moon is Illuminated

Today's Extremes

State Highs State Lows

Community

WunderPhotos

Upload Photos

1,851,804 photos uploaded!

WunderBlogs® & News

Nearby

Air Quality

  Air Quality AQ Index Pollutant
Not available.

Snow Depth

Station Depth Elevation

Earthquake Activity

City Distance Mag. Time & Date
Minimum magnitude displayed is 2.5.

Coastal Water Temperatures

Place Temperature

Stations

Nearby Weather Stations

Station Location Temp. Windchill Dew Point Humidity Wind Precip. Elev Updated Type